Time,TemperatureF,DewpointF,PressureIn,WindDirection,WindDirectionDegrees,WindSpeedMPH,WindSpeedGustMPH,Humidity,HourlyPrecipIn,Conditions,Clouds,dailyrainin,SolarRadiationWatts/m^2,SoftwareType,DateUTC
2013-03-22 00:02:00,44.1,40.5,29.98,WNW,291,0.0,0.0,87,0.00,,,0.00,0,WeatherCatV1.12B45,2013-03-22 07:02:00,
2013-03-22 00:07:00,43.8,40.2,29.98,West,265,0.0,0.0,87,0.00,,,0.00,0,WeatherCatV1.12B45,2013-03-22 07:07:00,
2013-03-22 00:12:00,43.5,39.9,29.98,West,263,0.0,0.0,87,0.00,,,0.00,0,WeatherCatV1.12B45,2013-03-22 07:12:00,
2013-03-22 00:17:00,43.3,39.7,29.98,West,272,0.0,0.0,87,0.00,,,0.00,0,WeatherCatV1.12B45,2013-03-22 07:17:00,
2013-03-22 00:22:00,43.1,39.5,29.98,West,271,0.0,0.0,87,0.00,,,0.00,0,WeatherCatV1.12B45,2013-03-22 07:22:00,
2013-03-22 00:27:00,42.9,39.6,29.98,West,267,0.0,0.0,88,0.00,,,0.00,0,WeatherCatV1.12B45,2013-03-22 07:27:00,
2013-03-22 00:32:00,42.8,39.5,29.97,West,263,0.0,0.0,88,0.00,,,0.00,0,WeatherCatV1.12B45,2013-03-22 07:32:00,
2013-03-22 00:37:00,42.6,39.3,29.97,West,268,0.0,0.0,88,0.00,,,0.00,0,WeatherCatV1.12B45,2013-03-22 07:37:00,
2013-03-22 00:42:00,42.5,39.2,29.97,West,265,0.0,0.0,88,0.00,,,0.00,0,WeatherCatV1.12B45,2013-03-22 07:42:00,
2013-03-22 00:47:00,42.3,39.0,29.97,West,275,0.0,0.0,88,0.00,,,0.00,0,WeatherCatV1.12B45,2013-03-22 07:47:00,
2013-03-22 00:52:00,42.2,38.9,29.97,WNW,284,0.0,0.0,88,0.00,,,0.00,0,WeatherCatV1.12B45,2013-03-22 07:52:00,
2013-03-22 00:57:00,42.1,39.1,29.97,WNW,284,0.0,0.0,89,0.00,,,0.00,0,WeatherCatV1.12B45,2013-03-22 07:57:00,
2013-03-22 01:02:00,41.9,38.9,29.97,West,277,0.0,0.0,89,0.00,,,0.00,0,WeatherCatV1.12B45,2013-03-22 08:02:00,
2013-03-22 01:07:00,41.8,38.8,29.97,West,261,0.0,0.0,89,0.00,,,0.00,0,WeatherCatV1.12B45,2013-03-22 08:07:00,
2013-03-22 01:17:00,41.3,38.3,29.97,West,280,0.0,0.0,89,0.00,,,0.00,0,WeatherCatV1.12B45,2013-03-22 08:17:00,
2013-03-22 01:22:00,41.3,38.3,29.97,West,272,0.0,0.0,89,0.00,,,0.00,0,WeatherCatV1.12B45,2013-03-22 08:22:00,
2013-03-22 01:27:00,41.2,38.2,29.97,West,272,0.0,0.0,89,0.00,,,0.00,0,WeatherCatV1.12B45,2013-03-22 08:27:00,
2013-03-22 01:32:00,41.1,38.1,29.97,West,267,0.0,0.0,89,0.00,,,0.00,0,WeatherCatV1.12B45,2013-03-22 08:32:00,
2013-03-22 01:37:00,40.9,37.9,29.97,West,271,0.0,0.0,89,0.00,,,0.00,0,WeatherCatV1.12B45,2013-03-22 08:37:00,
2013-03-22 01:42:00,40.9,38.2,29.97,West,267,0.0,0.0,90,0.00,,,0.00,0,WeatherCatV1.12B45,2013-03-22 08:42:00,
2013-03-22 01:47:00,40.6,37.9,29.98,West,271,0.0,0.0,90,0.00,,,0.00,0,WeatherCatV1.12B45,2013-03-22 08:47:00,
2013-03-22 01:52:00,40.5,37.8,29.98,East,88,0.0,0.0,90,0.00,,,0.00,0,WeatherCatV1.12B45,2013-03-22 08:52:00,
2013-03-22 01:57:00,40.3,37.6,29.98,East,88,0.0,0.0,90,0.00,,,0.00,0,WeatherCatV1.12B45,2013-03-22 08:57:00,
2013-03-22 02:02:00,40.2,37.5,29.98,East,88,0.0,0.0,90,0.00,,,0.00,0,WeatherCatV1.12B45,2013-03-22 09:02:00,
2013-03-22 02:07:00,40.1,37.4,29.98,East,88,0.0,0.0,90,0.00,,,0.00,0,WeatherCatV1.12B45,2013-03-22 09:07:00,
2013-03-22 02:12:00,39.9,37.2,29.98,East,88,0.0,0.0,90,0.00,,,0.00,0,WeatherCatV1.12B45,2013-03-22 09:12:00,
2013-03-22 02:17:00,39.8,37.1,29.98,East,88,0.0,0.0,90,0.00,,,0.00,0,WeatherCatV1.12B45,2013-03-22 09:17:00,
2013-03-22 02:22:00,39.6,36.9,29.98,East,88,0.0,0.0,90,0.00,,,0.00,0,WeatherCatV1.12B45,2013-03-22 09:22:00,
2013-03-22 02:27:00,39.6,36.9,29.98,East,88,0.0,0.0,90,0.00,,,0.00,0,WeatherCatV1.12B45,2013-03-22 09:27:00,
2013-03-22 02:32:00,39.6,36.9,29.97,East,88,0.0,0.0,90,0.00,,,0.00,0,WeatherCatV1.12B45,2013-03-22 09:32:00,
2013-03-22 02:37:00,39.5,36.8,29.97,East,88,0.0,0.0,90,0.00,,,0.00,0,WeatherCatV1.12B45,2013-03-22 09:37:00,
2013-03-22 02:42:00,39.3,36.9,29.97,East,88,0.0,0.0,91,0.00,,,0.00,0,WeatherCatV1.12B45,2013-03-22 09:42:00,
2013-03-22 02:47:00,39.3,36.9,29.97,East,88,0.0,0.0,91,0.00,,,0.00,0,WeatherCatV1.12B45,2013-03-22 09:47:00,
2013-03-22 02:52:00,39.2,36.8,29.97,East,88,0.0,0.0,91,0.00,,,0.00,0,WeatherCatV1.12B45,2013-03-22 09:52:00,
2013-03-22 02:57:00,39.1,36.7,29.97,East,88,0.0,0.0,91,0.00,,,0.00,0,WeatherCatV1.12B45,2013-03-22 09:57:00,
2013-03-22 03:02:00,38.9,36.5,29.97,East,88,0.0,0.0,91,0.00,,,0.00,0,WeatherCatV1.12B45,2013-03-22 10:02:00,
2013-03-22 03:07:00,38.8,36.4,29.97,East,88,0.0,0.0,91,0.00,,,0.00,0,WeatherCatV1.12B45,2013-03-22 10:07:00,
2013-03-22 03:12:00,38.6,36.2,29.97,East,88,0.0,0.0,91,0.00,,,0.00,0,WeatherCatV1.12B45,2013-03-22 10:12:00,
2013-03-22 03:17:00,38.6,36.2,29.97,East,88,0.0,0.0,91,0.00,,,0.00,0,WeatherCatV1.12B45,2013-03-22 10:17:00,
2013-03-22 03:22:00,38.6,36.2,29.97,East,88,0.0,0.0,91,0.00,,,0.00,0,WeatherCatV1.12B45,2013-03-22 10:22:00,
2013-03-22 03:27:00,38.3,35.9,29.97,East,88,0.0,0.0,91,0.00,,,0.00,0,WeatherCatV1.12B45,2013-03-22 10:27:00,
2013-03-22 03:32:00,38.2,35.8,29.97,East,88,0.0,0.0,91,0.00,,,0.00,0,WeatherCatV1.12B45,2013-03-22 10:32:00,
2013-03-22 03:37:00,38.2,35.8,29.97,East,88,0.0,0.0,91,0.00,,,0.00,0,WeatherCatV1.12B45,2013-03-22 10:37:00,
2013-03-22 03:42:00,38.0,35.6,29.97,East,88,0.0,0.0,91,0.00,,,0.00,0,WeatherCatV1.12B45,2013-03-22 10:42:00,
2013-03-22 03:47:00,37.9,35.5,29.97,East,88,0.0,0.0,91,0.00,,,0.00,0,WeatherCatV1.12B45,2013-03-22 10:47:00,
2013-03-22 03:52:00,37.8,35.4,29.97,East,88,0.0,0.0,91,0.00,,,0.00,0,WeatherCatV1.12B45,2013-03-22 10:52:00,
2013-03-22 03:57:00,37.8,35.4,29.97,East,89,0.0,0.0,91,0.00,,,0.00,0,WeatherCatV1.12B45,2013-03-22 10:57:00,
2013-03-22 04:02:00,37.8,35.4,29.97,East,89,0.0,0.0,91,0.00,,,0.00,0,WeatherCatV1.12B45,2013-03-22 11:02:00,
2013-03-22 04:07:00,37.8,35.4,29.97,East,89,0.0,0.0,91,0.00,,,0.00,0,WeatherCatV1.12B45,2013-03-22 11:07:00,
2013-03-22 04:12:00,37.8,35.4,29.97,East,89,0.0,0.0,91,0.00,,,0.00,0,WeatherCatV1.12B45,2013-03-22 11:12:00,
2013-03-22 04:17:00,-999.0,-99.9,29.97,North,-999,-999.0,0.0,-999,0.00,,,0.00,,WeatherCatV1.12B45,2013-03-22 11:17:00,
2013-03-22 04:22:00,-999.0,-99.9,29.97,North,-999,-999.0,0.0,-999,0.00,,,0.00,,WeatherCatV1.12B45,2013-03-22 11:22:00,
2013-03-22 04:27:00,-999.0,-99.9,29.97,North,-999,-999.0,0.0,-999,0.00,,,0.00,,WeatherCatV1.12B45,2013-03-22 11:27:00,
2013-03-22 04:32:00,-999.0,-99.9,29.97,North,-999,-999.0,0.0,-999,0.00,,,0.00,,WeatherCatV1.12B45,2013-03-22 11:32:00,
2013-03-22 04:37:00,-999.0,-99.9,29.97,North,-999,-999.0,0.0,-999,0.00,,,0.00,,WeatherCatV1.12B45,2013-03-22 11:37:00,
2013-03-22 04:42:00,-999.0,-99.9,29.97,North,-999,-999.0,0.0,-999,0.00,,,0.00,,WeatherCatV1.12B45,2013-03-22 11:42:00,
2013-03-22 04:47:00,36.6,-99.9,29.96,ESE,112,0.0,0.0,-999,0.00,,,0.00,,WeatherCatV1.12B45,2013-03-22 11:47:00,
2013-03-22 04:52:00,36.5,-99.9,29.96,ESE,112,0.0,0.0,-999,0.00,,,0.00,0,WeatherCatV1.12B45,2013-03-22 11:52:00,
2013-03-22 04:57:00,36.3,-99.9,29.96,ESE,102,0.0,0.0,-999,0.00,,,0.00,0,WeatherCatV1.12B45,2013-03-22 11:57:00,
2013-03-22 05:02:00,36.2,34.1,29.97,ESE,103,0.0,0.0,92,0.00,,,0.00,0,WeatherCatV1.12B45,2013-03-22 12:02:00,
2013-03-22 05:07:00,36.0,33.9,29.97,ESE,102,0.0,0.0,92,0.00,,,0.00,0,WeatherCatV1.12B45,2013-03-22 12:07:00,
2013-03-22 05:12:00,36.0,33.9,29.97,ESE,102,0.0,0.0,92,0.00,,,0.00,0,WeatherCatV1.12B45,2013-03-22 12:12:00,
2013-03-22 05:17:00,35.9,33.8,29.97,ESE,103,0.0,0.0,92,0.00,,,0.00,0,WeatherCatV1.12B45,2013-03-22 12:17:00,
2013-03-22 05:22:00,35.9,33.8,29.97,East,96,0.0,0.0,92,0.00,,,0.00,0,WeatherCatV1.12B45,2013-03-22 12:22:00,
2013-03-22 05:27:00,35.8,33.7,29.97,East,100,0.0,0.0,92,0.00,,,0.00,0,WeatherCatV1.12B45,2013-03-22 12:27:00,
2013-03-22 05:32:00,35.6,33.5,29.97,ESE,102,0.0,0.0,92,0.00,,,0.00,0,WeatherCatV1.12B45,2013-03-22 12:32:00,
2013-03-22 05:37:00,35.6,33.5,29.97,ESE,107,0.0,0.0,92,0.00,,,0.00,0,WeatherCatV1.12B45,2013-03-22 12:37:00,
2013-03-22 05:42:00,35.6,33.5,29.97,East,99,0.0,0.0,92,0.00,,,0.00,0,WeatherCatV1.12B45,2013-03-22 12:42:00,
2013-03-22 05:47:00,35.5,33.4,29.97,East,99,0.0,0.0,92,0.00,,,0.00,0,WeatherCatV1.12B45,2013-03-22 12:47:00,
2013-03-22 05:52:00,35.3,33.2,29.97,East,99,0.0,0.0,92,0.00,,,0.00,0,WeatherCatV1.12B45,2013-03-22 12:52:00,
2013-03-22 05:57:00,35.2,33.1,29.97,ESE,103,0.0,0.0,92,0.00,,,0.00,0,WeatherCatV1.12B45,2013-03-22 12:57:00,
2013-03-22 06:02:00,35.2,33.1,29.97,East,96,0.0,0.0,92,0.00,,,0.00,0,WeatherCatV1.12B45,2013-03-22 13:02:00,
2013-03-22 06:07:00,34.9,32.8,29.97,East,89,0.0,0.0,92,0.00,,,0.00,0,WeatherCatV1.12B45,2013-03-22 13:07:00,
2013-03-22 06:12:00,34.9,32.8,29.97,East,96,0.0,0.0,92,0.00,,,0.00,0,WeatherCatV1.12B45,2013-03-22 13:12:00,
2013-03-22 06:17:00,34.9,32.8,29.97,ESE,103,0.0,0.0,92,0.00,,,0.00,0,WeatherCatV1.12B45,2013-03-22 13:17:00,
2013-03-22 06:22:00,34.9,32.8,29.97,ESE,103,0.0,0.0,92,0.00,,,0.00,0,WeatherCatV1.12B45,2013-03-22 13:22:00,
2013-03-22 06:27:00,34.9,32.8,29.97,ESE,102,0.0,0.0,92,0.00,,,0.00,0,WeatherCatV1.12B45,2013-03-22 13:27:00,
2013-03-22 06:37:00,34.7,32.6,29.98,East,96,0.0,0.0,92,0.00,,,0.00,0,WeatherCatV1.12B45,2013-03-22 13:37:00,
2013-03-22 06:42:00,34.7,32.6,29.98,East,99,0.0,0.0,92,0.00,,,0.00,0,WeatherCatV1.12B45,2013-03-22 13:42:00,
2013-03-22 06:47:00,34.6,32.5,29.99,ESE,106,0.0,0.0,92,0.00,,,0.00,0,WeatherCatV1.12B45,2013-03-22 13:47:00,
2013-03-22 06:52:00,34.4,32.3,29.99,East,99,0.0,0.0,92,0.00,,,0.00,0,WeatherCatV1.12B45,2013-03-22 13:52:00,
2013-03-22 06:57:00,34.4,32.3,29.99,East,100,0.0,0.0,92,0.00,,,0.00,0,WeatherCatV1.12B45,2013-03-22 13:57:00,
2013-03-22 07:02:00,34.3,32.2,29.99,ESE,102,0.0,0.0,92,0.00,,,0.00,0,WeatherCatV1.12B45,2013-03-22 14:02:00,
2013-03-22 07:07:00,34.1,32.0,29.99,ESE,103,0.0,0.0,92,0.00,,,0.00,0,WeatherCatV1.12B45,2013-03-22 14:07:00,
2013-03-22 07:12:00,34.0,31.9,29.99,East,96,0.0,0.0,92,0.00,,,0.00,0,WeatherCatV1.12B45,2013-03-22 14:12:00,
2013-03-22 07:17:00,34.0,31.9,29.99,East,96,0.0,0.0,92,0.00,,,0.00,0,WeatherCatV1.12B45,2013-03-22 14:17:00,
2013-03-22 07:22:00,34.0,31.9,29.99,East,96,0.0,0.0,92,0.00,,,0.00,9,WeatherCatV1.12B45,2013-03-22 14:22:00,
2013-03-22 07:27:00,34.0,31.9,29.99,East,95,0.0,0.0,92,0.00,,,0.00,9,WeatherCatV1.12B45,2013-03-22 14:27:00,
2013-03-22 07:37:00,34.0,31.9,30.00,East,95,0.0,0.0,92,0.00,,,0.00,9,WeatherCatV1.12B45,2013-03-22 14:37:00,
2013-03-22 07:42:00,34.1,32.0,30.00,East,95,0.0,0.0,92,0.00,,,0.00,28,WeatherCatV1.12B45,2013-03-22 14:42:00,
2013-03-22 07:47:00,34.3,32.5,30.00,East,95,0.0,0.0,93,0.00,,,0.00,33,WeatherCatV1.12B45,2013-03-22 14:47:00,
2013-03-22 07:52:00,34.6,32.8,30.00,East,96,0.0,0.0,93,0.00,,,0.00,42,WeatherCatV1.12B45,2013-03-22 14:52:00,
2013-03-22 07:57:00,34.7,32.9,30.00,ESE,102,0.0,0.0,93,0.00,,,0.00,70,WeatherCatV1.12B45,2013-03-22 14:57:00,
2013-03-22 08:02:00,35.3,33.5,30.01,SE,126,0.0,0.0,93,0.00,,,0.00,70,WeatherCatV1.12B45,2013-03-22 15:02:00,
2013-03-22 08:07:00,35.9,34.1,30.01,ESE,110,0.0,0.0,93,0.00,,,0.00,118,WeatherCatV1.12B45,2013-03-22 15:07:00,
2013-03-22 08:12:00,36.8,35.2,30.01,West,272,0.0,0.0,94,0.00,,,0.00,132,WeatherCatV1.12B45,2013-03-22 15:12:00,
2013-03-22 08:17:00,37.3,35.7,30.01,West,265,0.0,0.0,94,0.00,,,0.00,148,WeatherCatV1.12B45,2013-03-22 15:17:00,
2013-03-22 08:22:00,38.2,36.6,30.01,West,264,0.0,0.0,94,0.00,,,0.00,160,WeatherCatV1.12B45,2013-03-22 15:22:00,
2013-03-22 08:27:00,39.1,37.5,30.01,West,265,0.0,0.0,94,0.00,,,0.00,176,WeatherCatV1.12B45,2013-03-22 15:27:00,
2013-03-22 08:37:00,40.6,39.0,30.01,West,264,0.0,0.0,94,0.00,,,0.00,213,WeatherCatV1.12B45,2013-03-22 15:37:00,
2013-03-22 08:42:00,41.6,40.0,30.01,West,261,0.0,0.0,94,0.00,,,0.00,227,WeatherCatV1.12B45,2013-03-22 15:42:00,
2013-03-22 08:47:00,42.6,41.0,30.01,West,278,0.0,0.0,94,0.00,,,0.00,227,WeatherCatV1.12B45,2013-03-22 15:47:00,
2013-03-22 08:52:00,43.3,41.7,30.01,WNW,288,0.0,0.0,94,0.00,,,0.00,266,WeatherCatV1.12B45,2013-03-22 15:52:00,
2013-03-22 08:57:00,44.1,42.5,30.01,WSW,257,0.0,0.0,94,0.00,,,0.00,274,WeatherCatV1.12B45,2013-03-22 15:57:00,
2013-03-22 09:02:00,44.9,43.3,30.02,SW,233,0.0,0.0,94,0.00,,,0.00,297,WeatherCatV1.12B45,2013-03-22 16:02:00,
2013-03-22 09:07:00,45.8,43.9,30.02,West,267,0.0,0.0,93,0.00,,,0.00,308,WeatherCatV1.12B45,2013-03-22 16:07:00,
2013-03-22 09:12:00,46.7,44.5,30.02,SSW,213,0.0,0.0,92,0.00,,,0.00,334,WeatherCatV1.12B45,2013-03-22 16:12:00,
2013-03-22 09:17:00,47.6,45.4,30.02,SSW,209,0.0,0.0,92,0.00,,,0.00,348,WeatherCatV1.12B45,2013-03-22 16:17:00,
2013-03-22 09:22:00,48.5,46.0,30.02,West,270,0.0,0.0,91,0.00,,,0.00,375,WeatherCatV1.12B45,2013-03-22 16:22:00,
2013-03-22 09:27:00,49.6,46.5,30.02,NW,308,0.0,0.0,89,0.00,,,0.00,398,WeatherCatV1.12B45,2013-03-22 16:27:00,
2013-03-22 09:32:00,50.8,45.5,30.02,WNW,289,0.0,0.0,82,0.00,,,0.00,426,WeatherCatV1.12B45,2013-03-22 16:32:00,
2013-03-22 09:37:00,52.0,46.7,30.02,West,275,0.0,1.0,82,0.00,,,0.00,443,WeatherCatV1.12B45,2013-03-22 16:37:00,
2013-03-22 09:42:00,53.3,47.9,30.02,WNW,296,0.0,0.0,82,0.00,,,0.00,470,WeatherCatV1.12B45,2013-03-22 16:42:00,
2013-03-22 09:47:00,54.5,49.1,30.02,WNW,287,0.0,1.0,82,0.00,,,0.00,482,WeatherCatV1.12B45,2013-03-22 16:47:00,
2013-03-22 09:57:00,56.6,51.2,30.02,NW,304,0.0,3.0,82,0.00,,,0.00,510,WeatherCatV1.12B45,2013-03-22 16:57:00,
2013-03-22 10:02:00,57.5,52.0,30.03,West,275,1.0,2.0,82,0.00,,,0.00,528,WeatherCatV1.12B45,2013-03-22 17:02:00,
2013-03-22 10:07:00,58.4,33.5,30.03,West,267,0.0,1.0,39,0.00,,,0.00,545,WeatherCatV1.12B45,2013-03-22 17:07:00,
2013-03-22 10:12:00,58.7,30.4,30.03,WSW,254,0.0,0.0,34,0.00,,,0.00,567,WeatherCatV1.12B45,2013-03-22 17:12:00,
2013-03-22 10:17:00,59.5,31.1,30.03,SW,232,1.0,1.0,34,0.00,,,0.00,575,WeatherCatV1.12B45,2013-03-22 17:17:00,
2013-03-22 10:22:00,59.8,28.3,30.03,SW,229,1.0,1.0,30,0.00,,,0.00,589,WeatherCatV1.12B45,2013-03-22 17:22:00,
2013-03-22 10:27:00,59.9,27.6,30.03,WSW,239,2.0,2.0,29,0.00,,,0.00,605,WeatherCatV1.12B45,2013-03-22 17:27:00,
2013-03-22 10:32:00,60.2,29.5,30.03,West,261,1.0,1.0,31,0.00,,,0.00,616,WeatherCatV1.12B45,2013-03-22 17:32:00,
2013-03-22 10:37:00,60.4,27.1,30.03,WSW,257,0.0,2.0,28,0.00,,,0.00,637,WeatherCatV1.12B45,2013-03-22 17:37:00,
2013-03-22 10:42:00,60.4,27.1,30.03,West,270,2.0,2.0,28,0.00,,,0.00,653,WeatherCatV1.12B45,2013-03-22 17:42:00,
2013-03-22 10:47:00,61.2,27.8,30.04,NW,311,0.0,1.0,28,0.00,,,0.00,670,WeatherCatV1.12B45,2013-03-22 17:47:00,
2013-03-22 10:52:00,61.5,27.2,30.04,WNW,291,0.0,1.0,27,0.00,,,0.00,681,WeatherCatV1.12B45,2013-03-22 17:52:00,
2013-03-22 10:57:00,61.8,26.6,30.04,West,275,0.0,1.0,26,0.00,,,0.00,693,WeatherCatV1.12B45,2013-03-22 17:57:00,
2013-03-22 11:02:00,61.8,26.6,30.04,North,0,3.0,5.0,26,0.00,,,0.00,693,WeatherCatV1.12B45,2013-03-22 18:02:00,
2013-03-22 11:07:00,62.0,26.7,30.04,NW,304,0.0,0.0,26,0.00,,,0.00,721,WeatherCatV1.12B45,2013-03-22 18:07:00,
2013-03-22 11:12:00,62.3,26.0,30.04,North,0,2.0,2.0,25,0.00,,,0.00,721,WeatherCatV1.12B45,2013-03-22 18:12:00,
2013-03-22 11:17:00,62.3,26.0,30.04,North,353,1.0,2.0,25,0.00,,,0.00,746,WeatherCatV1.12B45,2013-03-22 18:17:00,
2013-03-22 11:22:00,62.6,26.3,30.04,WSW,254,3.0,3.0,25,0.00,,,0.00,758,WeatherCatV1.12B45,2013-03-22 18:22:00,
2013-03-22 11:27:00,62.9,25.6,30.04,West,274,5.0,5.0,24,0.00,,,0.00,767,WeatherCatV1.12B45,2013-03-22 18:27:00,
2013-03-22 11:32:00,63.2,25.8,30.03,West,271,1.0,3.0,24,0.00,,,0.00,769,WeatherCatV1.12B45,2013-03-22 18:32:00,
2013-03-22 11:37:00,63.5,25.0,30.03,West,277,1.0,5.0,23,0.00,,,0.00,783,WeatherCatV1.12B45,2013-03-22 18:37:00,
2013-03-22 11:42:00,64.0,23.3,30.03,NW,315,2.0,3.0,21,0.00,,,0.00,794,WeatherCatV1.12B45,2013-03-22 18:42:00,
2013-03-22 11:47:00,64.2,24.6,30.04,WSW,257,0.0,6.0,22,0.00,,,0.00,797,WeatherCatV1.12B45,2013-03-22 18:47:00,
2013-03-22 11:52:00,64.2,23.5,30.04,SW,222,1.0,3.0,21,0.00,,,0.00,804,WeatherCatV1.12B45,2013-03-22 18:52:00,
2013-03-22 11:57:00,64.5,23.7,30.04,West,261,1.0,3.0,21,0.00,,,0.00,811,WeatherCatV1.12B45,2013-03-22 18:57:00,
2013-03-22 12:02:00,64.7,22.7,30.03,West,270,2.0,2.0,20,0.00,,,0.00,811,WeatherCatV1.12B45,2013-03-22 19:02:00,
2013-03-22 12:07:00,64.5,21.3,30.03,WSW,257,6.0,8.0,19,0.00,,,0.00,825,WeatherCatV1.12B45,2013-03-22 19:07:00,
2013-03-22 12:12:00,64.5,23.7,30.03,North,0,0.0,0.0,21,0.00,,,0.00,830,WeatherCatV1.12B45,2013-03-22 19:12:00,
2013-03-22 12:17:00,64.8,21.6,30.03,WSW,240,2.0,3.0,19,0.00,,,0.00,830,WeatherCatV1.12B45,2013-03-22 19:17:00,
2013-03-22 12:22:00,65.2,21.9,30.03,NW,305,1.0,1.0,19,0.00,,,0.00,845,WeatherCatV1.12B45,2013-03-22 19:22:00,
2013-03-22 12:27:00,65.2,23.1,30.03,WSW,237,1.0,1.0,20,0.00,,,0.00,848,WeatherCatV1.12B45,2013-03-22 19:27:00,
2013-03-22 12:32:00,65.2,20.6,30.02,WNW,291,0.0,0.0,18,0.00,,,0.00,850,WeatherCatV1.12B45,2013-03-22 19:32:00,
2013-03-22 12:42:00,65.6,21.0,30.02,West,260,2.0,3.0,18,0.00,,,0.00,857,WeatherCatV1.12B45,2013-03-22 19:42:00,
2013-03-22 12:47:00,65.8,24.8,30.02,West,281,3.0,6.0,21,0.00,,,0.00,862,WeatherCatV1.12B45,2013-03-22 19:47:00,
2013-03-22 12:52:00,65.6,23.5,30.02,West,268,0.0,2.0,20,0.00,,,0.00,860,WeatherCatV1.12B45,2013-03-22 19:52:00,
2013-03-22 12:57:00,66.0,24.9,30.02,WSW,256,0.0,3.0,21,0.00,,,0.00,866,WeatherCatV1.12B45,2013-03-22 19:57:00,
2013-03-22 13:02:00,66.3,25.2,30.02,West,270,5.0,5.0,21,0.00,,,0.00,864,WeatherCatV1.12B45,2013-03-22 20:02:00,
2013-03-22 13:07:00,66.1,23.9,30.02,West,272,1.0,2.0,20,0.00,,,0.00,866,WeatherCatV1.12B45,2013-03-22 20:07:00,
2013-03-22 13:12:00,66.4,22.9,30.02,WNW,291,1.0,2.0,19,0.00,,,0.00,866,WeatherCatV1.12B45,2013-03-22 20:12:00,
2013-03-22 13:17:00,66.6,25.4,30.02,WSW,253,1.0,2.0,21,0.00,,,0.00,867,WeatherCatV1.12B45,2013-03-22 20:17:00,
2013-03-22 13:22:00,66.9,23.3,30.02,West,263,0.0,2.0,19,0.00,,,0.00,866,WeatherCatV1.12B45,2013-03-22 20:22:00,
2013-03-22 13:27:00,67.1,23.5,30.02,WSW,248,0.0,3.0,19,0.00,,,0.00,869,WeatherCatV1.12B45,2013-03-22 20:27:00,
2013-03-22 13:32:00,67.4,26.1,30.01,SW,223,2.0,4.0,21,0.00,,,0.00,866,WeatherCatV1.12B45,2013-03-22 20:32:00,
2013-03-22 13:37:00,67.8,26.4,30.01,SSW,192,1.0,1.0,21,0.00,,,0.00,866,WeatherCatV1.12B45,2013-03-22 20:37:00,
2013-03-22 13:42:00,67.9,26.5,30.01,SW,216,1.0,1.0,21,0.00,,,0.00,866,WeatherCatV1.12B45,2013-03-22 20:42:00,
2013-03-22 13:47:00,68.3,24.5,30.00,SE,141,3.0,3.0,19,0.00,,,0.00,866,WeatherCatV1.12B45,2013-03-22 20:47:00,
2013-03-22 13:52:00,68.8,24.9,30.00,SSW,200,1.0,1.0,19,0.00,,,0.00,855,WeatherCatV1.12B45,2013-03-22 20:52:00,
2013-03-22 13:57:00,68.9,24.9,30.00,SW,233,0.0,0.0,19,0.00,,,0.00,855,WeatherCatV1.12B45,2013-03-22 20:57:00,
2013-03-22 14:02:00,69.1,22.5,30.00,South,191,2.0,3.0,17,0.00,,,0.00,850,WeatherCatV1.12B45,2013-03-22 21:02:00,
2013-03-22 14:07:00,68.9,22.3,30.00,South,188,1.0,1.0,17,0.00,,,0.00,846,WeatherCatV1.12B45,2013-03-22 21:07:00,
2013-03-22 14:12:00,69.1,22.5,30.00,SSW,210,2.0,2.0,17,0.00,,,0.00,841,WeatherCatV1.12B45,2013-03-22 21:12:00,
2013-03-22 14:17:00,69.1,21.0,29.99,SSW,199,2.0,2.0,16,0.00,,,0.00,839,WeatherCatV1.12B45,2013-03-22 21:17:00,
2013-03-22 14:22:00,69.1,21.0,29.99,WSW,257,0.0,3.0,16,0.00,,,0.00,832,WeatherCatV1.12B45,2013-03-22 21:22:00,
2013-03-22 14:27:00,68.9,22.3,29.99,WNW,287,5.0,5.0,17,0.00,,,0.00,832,WeatherCatV1.12B45,2013-03-22 21:27:00,
2013-03-22 14:32:00,69.1,22.5,29.99,WSW,247,3.0,3.0,17,0.00,,,0.00,832,WeatherCatV1.12B45,2013-03-22 21:32:00,
2013-03-22 14:37:00,69.4,24.1,29.99,SW,234,1.0,1.0,18,0.00,,,0.00,808,WeatherCatV1.12B45,2013-03-22 21:37:00,
2013-03-22 14:42:00,69.9,21.7,29.99,SSW,193,1.0,1.0,16,0.00,,,0.00,797,WeatherCatV1.12B45,2013-03-22 21:42:00,
2013-03-22 14:52:00,71.3,29.3,29.98,North,356,0.0,3.0,21,0.00,,,0.00,781,WeatherCatV1.12B45,2013-03-22 21:52:00,
2013-03-22 14:57:00,71.1,31.4,29.98,NNW,335,2.0,6.0,23,0.00,,,0.00,769,WeatherCatV1.12B45,2013-03-22 21:57:00,
2013-03-22 15:02:00,69.9,33.4,29.98,North,354,1.0,2.0,26,0.00,,,0.00,762,WeatherCatV1.12B45,2013-03-22 22:02:00,
2013-03-22 15:07:00,69.4,33.0,29.98,North,356,0.0,6.0,26,0.00,,,0.00,750,WeatherCatV1.12B45,2013-03-22 22:07:00,
2013-03-22 15:12:00,69.4,33.0,29.98,North,357,0.0,1.0,26,0.00,,,0.00,737,WeatherCatV1.12B45,2013-03-22 22:12:00,
2013-03-22 15:17:00,69.4,33.0,29.97,North,350,0.0,2.0,26,0.00,,,0.00,732,WeatherCatV1.12B45,2013-03-22 22:17:00,
2013-03-22 15:22:00,68.8,34.4,29.97,North,356,6.0,7.0,28,0.00,,,0.00,718,WeatherCatV1.12B45,2013-03-22 22:22:00,
2013-03-22 15:27:00,68.4,34.0,29.97,North,353,1.0,1.0,28,0.00,,,0.00,718,WeatherCatV1.12B45,2013-03-22 22:27:00,
2013-03-22 15:32:00,68.4,34.0,29.97,North,353,1.0,1.0,28,0.00,,,0.00,718,WeatherCatV1.12B45,2013-03-22 22:32:00,
2013-03-22 15:37:00,68.4,32.2,29.97,North,354,3.0,5.0,26,0.00,,,0.00,683,WeatherCatV1.12B45,2013-03-22 22:37:00,
2013-03-22 15:42:00,68.4,33.1,29.97,NNW,329,2.0,5.0,27,0.00,,,0.00,665,WeatherCatV1.12B45,2013-03-22 22:42:00,
2013-03-22 15:47:00,68.3,33.0,29.97,North,357,2.0,11.0,27,0.00,,,0.00,648,WeatherCatV1.12B45,2013-03-22 22:47:00,
2013-03-22 15:52:00,68.1,35.5,29.97,North,357,2.0,7.0,30,0.00,,,0.00,648,WeatherCatV1.12B45,2013-03-22 22:52:00,
2013-03-22 15:57:00,68.1,34.6,29.97,North,0,2.0,5.0,29,0.00,,,0.00,579,WeatherCatV1.12B45,2013-03-22 22:57:00,
2013-03-22 16:02:00,68.1,33.8,29.96,North,0,0.0,2.0,28,0.00,,,0.00,605,WeatherCatV1.12B45,2013-03-22 23:02:00,
2013-03-22 16:07:00,68.3,33.9,29.96,North,0,0.0,1.0,28,0.00,,,0.00,605,WeatherCatV1.12B45,2013-03-22 23:07:00,
2013-03-22 16:12:00,68.3,35.7,29.96,North,357,0.0,5.0,30,0.00,,,0.00,130,WeatherCatV1.12B45,2013-03-22 23:12:00,
2013-03-22 16:17:00,68.1,33.8,29.96,North,357,1.0,1.0,28,0.00,,,0.00,130,WeatherCatV1.12B45,2013-03-22 23:17:00,
2013-03-22 16:22:00,68.3,33.9,29.96,North,354,0.0,2.0,28,0.00,,,0.00,162,WeatherCatV1.12B45,2013-03-22 23:22:00,
2013-03-22 16:27:00,68.1,33.8,29.96,North,350,0.0,0.0,28,0.00,,,0.00,308,WeatherCatV1.12B45,2013-03-22 23:27:00,
2013-03-22 16:32:00,67.8,36.1,29.96,North,0,2.0,2.0,31,0.00,,,0.00,308,WeatherCatV1.12B45,2013-03-22 23:32:00,
2013-03-22 16:37:00,67.4,38.1,29.96,North,356,1.0,6.0,34,0.00,,,0.00,308,WeatherCatV1.12B45,2013-03-22 23:37:00,
2013-03-22 16:42:00,67.3,38.7,29.96,NNW,333,1.0,5.0,35,0.00,,,0.00,308,WeatherCatV1.12B45,2013-03-22 23:42:00,
2013-03-22 16:47:00,66.9,38.4,29.95,North,350,2.0,2.0,35,0.00,,,0.00,63,WeatherCatV1.12B45,2013-03-22 23:47:00,
2013-03-22 16:52:00,66.6,38.8,29.95,North,353,3.0,3.0,36,0.00,,,0.00,63,WeatherCatV1.12B45,2013-03-22 23:52:00,
2013-03-22 16:57:00,66.1,38.4,29.95,North,350,0.0,3.0,36,0.00,,,0.00,60,WeatherCatV1.12B45,2013-03-22 23:57:00,
2013-03-22 17:02:00,66.3,38.5,29.95,North,350,0.0,0.0,36,0.00,,,0.00,58,WeatherCatV1.12B45,2013-03-23 00:02:00,
2013-03-22 17:07:00,66.4,39.3,29.95,North,357,0.0,0.0,37,0.00,,,0.00,56,WeatherCatV1.12B45,2013-03-23 00:07:00,
2013-03-22 17:12:00,66.4,37.2,29.95,North,356,0.0,2.0,34,0.00,,,0.00,55,WeatherCatV1.12B45,2013-03-23 00:12:00,
2013-03-22 17:17:00,66.4,37.2,29.95,North,357,3.0,3.0,34,0.00,,,0.00,53,WeatherCatV1.12B45,2013-03-23 00:17:00,
2013-03-22 17:22:00,66.4,31.4,29.95,North,357,1.0,2.0,27,0.00,,,0.00,51,WeatherCatV1.12B45,2013-03-23 00:22:00,
2013-03-22 17:27:00,66.4,33.2,29.95,North,0,0.0,1.0,29,0.00,,,0.00,51,WeatherCatV1.12B45,2013-03-23 00:27:00,
2013-03-22 17:32:00,66.4,32.3,29.95,North,357,2.0,3.0,28,0.00,,,0.00,51,WeatherCatV1.12B45,2013-03-23 00:32:00,
2013-03-22 17:37:00,66.4,32.3,29.95,North,357,0.0,2.0,28,0.00,,,0.00,51,WeatherCatV1.12B45,2013-03-23 00:37:00,
2013-03-22 18:06:00,65.8,30.9,29.95,North,357,1.0,2.0,27,0.00,,,0.00,37,WeatherCatV1.12B45,2013-03-23 01:06:00,
2013-03-22 18:11:00,65.6,30.7,29.95,WSW,256,1.0,2.0,27,0.00,,,0.00,37,WeatherCatV1.12B45,2013-03-23 01:11:00,
2013-03-22 18:16:00,65.3,31.4,29.95,North,353,3.0,3.0,28,0.00,,,0.00,37,WeatherCatV1.12B45,2013-03-23 01:16:00,
2013-03-22 18:31:00,64.3,30.5,29.95,North,356,0.0,0.0,28,0.00,,,0.00,32,WeatherCatV1.12B45,2013-03-23 01:31:00,
2013-03-22 18:36:00,63.9,30.2,29.95,North,357,1.0,3.0,28,0.00,,,0.00,32,WeatherCatV1.12B45,2013-03-23 01:36:00,
2013-03-22 18:41:00,63.5,30.7,29.95,SW,222,1.0,1.0,29,0.00,,,0.00,32,WeatherCatV1.12B45,2013-03-23 01:41:00,
2013-03-22 18:56:00,62.4,29.7,29.96,North,354,0.0,1.0,29,0.00,,,0.00,23,WeatherCatV1.12B45,2013-03-23 01:56:00,
2013-03-22 19:01:00,62.0,29.4,29.96,North,354,0.0,0.0,29,0.00,,,0.00,18,WeatherCatV1.12B45,2013-03-23 02:01:00,
2013-03-22 19:06:00,61.6,30.7,29.96,North,353,0.0,0.0,31,0.00,,,0.00,12,WeatherCatV1.12B45,2013-03-23 02:06:00,
2013-03-22 19:11:00,61.3,30.4,29.96,North,353,0.0,0.0,31,0.00,,,0.00,12,WeatherCatV1.12B45,2013-03-23 02:11:00,
2013-03-22 19:16:00,60.9,31.6,29.96,North,356,0.0,0.0,33,0.00,,,0.00,7,WeatherCatV1.12B45,2013-03-23 02:16:00,
2013-03-22 19:21:00,60.2,33.8,29.96,North,357,0.0,0.0,37,0.00,,,0.00,5,WeatherCatV1.12B45,2013-03-23 02:21:00,
2013-03-22 19:26:00,59.8,33.5,29.96,North,357,0.0,0.0,37,0.00,,,0.00,0,WeatherCatV1.12B45,2013-03-23 02:26:00,
2013-03-22 19:31:00,59.3,33.0,29.96,North,357,0.0,0.0,37,0.00,,,0.00,0,WeatherCatV1.12B45,2013-03-23 02:31:00,
2013-03-22 19:36:00,58.7,33.8,29.96,North,357,0.0,0.0,39,0.00,,,0.00,0,WeatherCatV1.12B45,2013-03-23 02:36:00,
2013-03-22 19:41:00,58.4,35.4,29.96,North,357,0.0,0.0,42,0.00,,,0.00,0,WeatherCatV1.12B45,2013-03-23 02:41:00,
2013-03-22 19:46:00,58.1,35.1,29.97,North,0,0.0,0.0,42,0.00,,,0.00,0,WeatherCatV1.12B45,2013-03-23 02:46:00,
2013-03-22 19:51:00,57.0,35.9,29.97,North,357,0.0,0.0,45,0.00,,,0.00,0,WeatherCatV1.12B45,2013-03-23 02:51:00,
2013-03-22 19:56:00,56.9,36.9,29.97,North,357,0.0,0.0,47,0.00,,,0.00,0,WeatherCatV1.12B45,2013-03-23 02:56:00,
2013-03-22 20:06:00,55.4,36.6,29.97,North,0,0.0,0.0,49,0.00,,,0.00,0,WeatherCatV1.12B45,2013-03-23 03:06:00,
2013-03-22 20:11:00,54.8,37.0,29.97,North,357,0.0,0.0,51,0.00,,,0.00,0,WeatherCatV1.12B45,2013-03-23 03:11:00,
2013-03-22 20:16:00,54.2,37.0,29.97,North,357,0.0,0.0,52,0.00,,,0.00,0,WeatherCatV1.12B45,2013-03-23 03:16:00,
2013-03-22 20:21:00,53.9,36.7,29.97,SSW,195,0.0,0.0,52,0.00,,,0.00,0,WeatherCatV1.12B45,2013-03-23 03:21:00,
2013-03-22 20:26:00,53.3,36.6,29.97,North,357,0.0,0.0,53,0.00,,,0.00,0,WeatherCatV1.12B45,2013-03-23 03:26:00,
2013-03-22 20:31:00,52.9,37.2,29.98,North,356,0.0,0.0,55,0.00,,,0.00,0,WeatherCatV1.12B45,2013-03-23 03:31:00,
2013-03-22 20:36:00,52.5,37.7,29.98,North,357,0.0,0.0,57,0.00,,,0.00,0,WeatherCatV1.12B45,2013-03-23 03:36:00,
2013-03-22 20:41:00,52.0,37.7,29.98,North,357,0.0,0.0,58,0.00,,,0.00,0,WeatherCatV1.12B45,2013-03-23 03:41:00,
2013-03-22 20:51:00,51.4,38.0,29.99,North,357,0.0,0.0,60,0.00,,,0.00,0,WeatherCatV1.12B45,2013-03-23 03:51:00,
2013-03-22 21:01:00,50.7,37.7,29.99,North,357,0.0,0.0,61,0.00,,,0.00,0,WeatherCatV1.12B45,2013-03-23 04:01:00,
2013-03-22 21:06:00,50.2,38.1,29.99,North,356,0.0,0.0,63,0.00,,,0.00,0,WeatherCatV1.12B45,2013-03-23 04:06:00,
2013-03-22 21:11:00,49.9,37.8,29.99,North,357,0.0,0.0,63,0.00,,,0.00,0,WeatherCatV1.12B45,2013-03-23 04:11:00,
2013-03-22 21:16:00,49.6,38.3,29.99,North,0,0.0,0.0,65,0.00,,,0.00,0,WeatherCatV1.12B45,2013-03-23 04:16:00,
2013-03-22 21:26:00,49.1,38.6,29.99,North,0,0.0,0.0,67,0.00,,,0.00,0,WeatherCatV1.12B45,2013-03-23 04:26:00,
2013-03-22 21:31:00,48.8,38.3,30.00,North,0,0.0,0.0,67,0.00,,,0.00,0,WeatherCatV1.12B45,2013-03-23 04:31:00,
2013-03-22 21:36:00,48.5,38.0,30.00,North,0,0.0,0.0,67,0.00,,,0.00,0,WeatherCatV1.12B45,2013-03-23 04:36:00,
2013-03-22 21:41:00,48.3,38.2,30.00,North,0,0.0,0.0,68,0.00,,,0.00,0,WeatherCatV1.12B45,2013-03-23 04:41:00,
2013-03-22 21:51:00,47.7,38.0,30.00,North,0,0.0,0.0,69,0.00,,,0.00,0,WeatherCatV1.12B45,2013-03-23 04:51:00,
2013-03-22 21:56:00,47.6,37.9,30.00,North,0,0.0,0.0,69,0.00,,,0.00,0,WeatherCatV1.12B45,2013-03-23 04:56:00,
2013-03-22 22:01:00,47.4,38.1,30.00,North,357,0.0,0.0,70,0.00,,,0.00,0,WeatherCatV1.12B45,2013-03-23 05:01:00,
2013-03-22 22:06:00,47.1,38.2,30.00,North,356,0.0,0.0,71,0.00,,,0.00,0,WeatherCatV1.12B45,2013-03-23 05:06:00,
2013-03-22 22:11:00,46.8,38.3,30.00,North,357,0.0,0.0,72,0.00,,,0.00,0,WeatherCatV1.12B45,2013-03-23 05:11:00,
2013-03-22 22:16:00,46.7,38.9,30.00,North,0,0.0,0.0,74,0.00,,,0.00,0,WeatherCatV1.12B45,2013-03-23 05:16:00,
2013-03-22 22:26:00,46.2,38.7,30.00,North,357,0.0,0.0,75,0.00,,,0.00,0,WeatherCatV1.12B45,2013-03-23 05:26:00,
2013-03-22 22:31:00,46.1,39.0,30.00,North,357,0.0,0.0,76,0.00,,,0.00,0,WeatherCatV1.12B45,2013-03-23 05:31:00,
2013-03-22 22:36:00,46.0,38.9,30.00,North,357,0.0,0.0,76,0.00,,,0.00,0,WeatherCatV1.12B45,2013-03-23 05:36:00,
2013-03-22 22:41:00,45.8,38.7,30.00,North,357,0.0,0.0,76,0.00,,,0.00,0,WeatherCatV1.12B45,2013-03-23 05:41:00,
2013-03-22 22:51:00,45.5,38.7,30.00,North,357,0.0,0.0,77,0.00,,,0.00,0,WeatherCatV1.12B45,2013-03-23 05:51:00,
2013-03-22 22:56:00,45.4,38.9,30.00,North,357,0.0,0.0,78,0.00,,,0.00,0,WeatherCatV1.12B45,2013-03-23 05:56:00,
2013-03-22 23:06:00,44.9,38.8,30.00,North,357,0.0,0.0,79,0.00,,,0.00,0,WeatherCatV1.12B45,2013-03-23 06:06:00,
2013-03-22 23:16:00,44.8,39.0,30.01,North,357,0.0,0.0,80,0.00,,,0.00,0,WeatherCatV1.12B45,2013-03-23 06:16:00,
2013-03-22 23:26:00,44.5,39.0,30.01,North,357,0.0,0.0,81,0.00,,,0.00,0,WeatherCatV1.12B45,2013-03-23 06:26:00,
2013-03-22 23:36:00,44.1,38.6,30.01,North,357,0.0,0.0,81,0.00,,,0.00,0,WeatherCatV1.12B45,2013-03-23 06:36:00,
2013-03-22 23:41:00,43.9,38.8,30.01,North,357,0.0,0.0,82,0.00,,,0.00,0,WeatherCatV1.12B45,2013-03-23 06:41:00,
2013-03-22 23:46:00,43.9,38.8,30.01,North,357,0.0,0.0,82,0.00,,,0.00,0,WeatherCatV1.12B45,2013-03-23 06:46:00,
2013-03-22 23:51:00,43.6,38.5,30.01,North,357,0.0,0.0,82,0.00,,,0.00,0,WeatherCatV1.12B45,2013-03-23 06:51:00,